Time;durP1;ratioP1;P1;durP2;ratioP2;P2;SDS_P1;SDS_P2;PMS_P1;PMS_P2;Temp;Humidity;BMP_temperature;BMP_pressure;BME280_temperature;BME280_humidity;BME280_pressure;Samples;Min_cycle;Max_cycle;Signal;HPM_P1;HPM_P2
2023/12/20 00:00:07;;;;;;;10.50;7.00;;;;;;;7.10;69.31;100023.52;108016;1255;60326;-76
2023/12/20 00:02:35;;;;;;;10.70;7.30;;;;;;;7.10;69.08;100018.77;108076;1255;73787;-74
2023/12/20 00:05:02;;;;;;;13.50;8.00;;;;;;;7.09;68.83;100010.17;108079;1254;71483;-75
2023/12/20 00:07:30;;;;;;;11.50;6.80;;;;;;;7.10;68.66;100006.73;108084;1255;71450;-74
2023/12/20 00:09:58;;;;;;;11.70;7.80;;;;;;;7.11;68.60;100011.04;107893;1254;60284;-74
2023/12/20 00:12:25;;;;;;;10.60;6.80;;;;;;;7.10;68.32;100007.67;108096;1254;60923;-74
2023/12/20 00:14:53;;;;;;;9.70;6.60;;;;;;;7.12;68.38;100004.75;107983;1257;75916;-74
2023/12/20 00:17:20;;;;;;;10.90;7.40;;;;;;;7.13;68.12;100006.30;108036;1257;71222;-74
2023/12/20 00:19:48;;;;;;;11.30;7.00;;;;;;;7.15;67.58;100003.20;108019;1254;72666;-75
2023/12/20 00:22:16;;;;;;;11.10;6.60;;;;;;;7.18;67.44;99999.61;108004;1254;60236;-75
2023/12/20 00:24:43;;;;;;;9.80;6.50;;;;;;;7.19;67.16;99996.86;107905;1255;60203;-75
2023/12/20 00:27:11;;;;;;;12.40;7.10;;;;;;;7.20;67.12;99991.49;108034;1254;71687;-74
2023/12/20 00:29:39;;;;;;;10.50;6.80;;;;;;;7.20;66.90;99985.23;108100;1254;71525;-75
2023/12/20 00:32:06;;;;;;;9.20;6.60;;;;;;;7.20;66.79;99987.63;108075;1254;71130;-75
2023/12/20 00:34:34;;;;;;;10.20;6.90;;;;;;;7.21;66.89;99984.23;108017;1254;60243;-73
2023/12/20 00:37:02;;;;;;;8.60;6.50;;;;;;;7.21;66.76;99982.54;107947;1254;60320;-74
2023/12/20 00:39:29;;;;;;;10.10;6.60;;;;;;;7.22;66.67;99978.52;108018;1254;71584;-74
2023/12/20 00:41:57;;;;;;;11.20;7.20;;;;;;;7.22;66.55;99966.77;108018;1254;71626;-74
2023/12/20 00:44:25;;;;;;;10.20;6.40;;;;;;;7.22;66.53;99966.40;107963;1254;72484;-74
2023/12/20 00:46:52;;;;;;;9.20;6.40;;;;;;;7.22;66.52;99965.50;108047;1259;60300;-74
2023/12/20 00:49:20;;;;;;;9.30;6.80;;;;;;;7.23;66.52;99964.17;108056;1254;60313;-74
2023/12/20 00:51:50;;;;;;;10.50;6.30;;;;;;;7.23;66.44;99954.77;108162;1254;73192;-74
2023/12/20 00:54:18;;;;;;;10.10;6.40;;;;;;;7.23;66.48;99956.69;108070;1257;72830;-74
2023/12/20 00:56:46;;;;;;;11.20;7.00;;;;;;;7.24;66.61;99947.37;108038;1257;70790;-74
2023/12/20 00:59:14;;;;;;;9.80;6.60;;;;;;;7.25;66.70;99939.66;108158;1255;60318;-74
2023/12/20 01:01:42;;;;;;;8.90;5.70;;;;;;;7.25;66.83;99931.80;108101;1259;60250;-73
2023/12/20 01:04:10;;;;;;;9.30;6.50;;;;;;;7.26;66.74;99924.73;108098;1253;72592;-75
2023/12/20 01:06:38;;;;;;;10.70;6.20;;;;;;;7.25;66.67;99921.60;108032;1259;71590;-75
2023/12/20 01:09:06;;;;;;;10.00;6.00;;;;;;;7.24;66.60;99915.80;108095;1257;71743;-76
2023/12/20 01:11:33;;;;;;;9.00;5.90;;;;;;;7.24;66.69;99910.02;108070;1254;60430;-73
2023/12/20 01:14:01;;;;;;;10.90;6.80;;;;;;;7.24;66.52;99910.33;108058;1254;61066;-73
2023/12/20 01:16:28;;;;;;;10.10;5.80;;;;;;;7.23;66.46;99908.19;108013;1254;73983;-73
2023/12/20 01:18:56;;;;;;;8.90;5.50;;;;;;;7.23;66.31;99910.32;108012;1259;71595;-74
2023/12/20 01:21:23;;;;;;;8.80;5.90;;;;;;;7.24;66.33;99898.48;108045;1254;71392;-75
2023/12/20 01:23:51;;;;;;;9.40;6.20;;;;;;;7.26;66.34;99896.86;107935;1259;59246;-75
2023/12/20 01:26:19;;;;;;;10.10;6.40;;;;;;;7.29;66.29;99900.55;107836;1254;60335;-73
2023/12/20 01:28:46;;;;;;;8.80;6.00;;;;;;;7.30;66.22;99893.27;107957;1254;72377;-74
2023/12/20 01:31:14;;;;;;;9.50;6.30;;;;;;;7.32;66.23;99889.95;108031;1254;71625;-75
2023/12/20 01:33:42;;;;;;;9.70;6.20;;;;;;;7.33;65.98;99884.27;107807;1260;71431;-75
2023/12/20 01:36:10;;;;;;;9.80;6.30;;;;;;;7.32;65.96;99881.08;108000;1257;60731;-75
2023/12/20 01:38:38;;;;;;;10.10;6.70;;;;;;;7.33;66.00;99885.48;108060;1254;60415;-75
2023/12/20 01:41:05;;;;;;;8.10;5.70;;;;;;;7.33;65.94;99889.90;108014;1254;73843;-74
2023/12/20 01:43:33;;;;;;;10.10;6.50;;;;;;;7.33;66.04;99889.05;107967;1255;71730;-74
2023/12/20 01:46:17;;;;;;;12.10;6.20;;;;;;;7.33;65.97;99888.84;107941;1259;71397;-74
2023/12/20 01:48:44;;;;;;;10.30;6.80;;;;;;;7.32;65.87;99884.95;107952;1254;60427;-75
2023/12/20 01:51:12;;;;;;;10.90;7.20;;;;;;;7.33;66.02;99876.02;108072;1260;60323;-74
2023/12/20 01:53:40;;;;;;;10.10;6.80;;;;;;;7.33;66.06;99874.96;108073;1254;73958;-74
2023/12/20 01:56:07;;;;;;;10.90;6.60;;;;;;;7.31;66.07;99865.03;108138;1256;70449;-76
2023/12/20 01:58:39;;;;;;;10.50;7.10;;;;;;;7.30;66.08;99863.16;107746;1254;245706;-73
2023/12/20 02:01:06;;;;;;;12.30;7.00;;;;;;;7.28;66.18;99869.84;107994;1259;60184;-75
2023/12/20 02:03:36;;;;;;;12.60;7.80;;;;;;;7.28;66.34;99873.55;108010;1254;60456;-74
2023/12/20 02:06:04;;;;;;;11.20;7.60;;;;;;;7.28;66.55;99865.27;107961;1260;72628;-76
2023/12/20 02:08:32;;;;;;;12.30;7.90;;;;;;;7.26;66.54;99863.38;107724;1257;72743;-75
2023/12/20 02:11:00;;;;;;;13.10;7.90;;;;;;;7.26;66.63;99856.95;108066;1254;72699;-74
2023/12/20 02:13:27;;;;;;;11.40;7.90;;;;;;;7.25;66.74;99856.10;108051;1259;60919;-75
2023/12/20 02:15:55;;;;;;;12.30;8.00;;;;;;;7.23;66.92;99850.45;108090;1256;60155;-73
2023/12/20 02:18:22;;;;;;;12.30;8.30;;;;;;;7.21;67.06;99852.09;108018;1254;73874;-74
2023/12/20 02:20:50;;;;;;;11.60;7.70;;;;;;;7.20;67.13;99853.70;108046;1260;71245;-75
2023/12/20 02:23:18;;;;;;;14.60;8.70;;;;;;;7.17;67.18;99845.83;107999;1262;72486;-73
2023/12/20 02:25:46;;;;;;;14.60;8.90;;;;;;;7.15;67.35;99843.36;108023;1258;60187;-74
2023/12/20 02:28:14;;;;;;;12.90;8.90;;;;;;;7.11;67.44;99838.29;108029;1254;60412;-73
2023/12/20 02:30:41;;;;;;;12.00;8.30;;;;;;;7.07;67.48;99835.32;107838;1253;73869;-73
2023/12/20 02:33:11;;;;;;;12.50;8.20;;;;;;;7.03;67.59;99835.97;108020;1254;71611;-73
2023/12/20 02:35:39;;;;;;;12.60;7.60;;;;;;;6.99;67.66;99830.52;108074;1254;71646;-75
2023/12/20 02:38:06;;;;;;;13.20;8.30;;;;;;;6.96;67.86;99827.77;108028;1255;60287;-72
2023/12/20 02:40:34;;;;;;;12.50;8.40;;;;;;;6.93;67.97;99825.35;108084;1254;60132;-74
2023/12/20 02:43:02;;;;;;;12.90;8.00;;;;;;;6.89;68.14;99829.20;107882;1254;73327;-75
2023/12/20 02:45:30;;;;;;;14.90;9.40;;;;;;;6.86;68.25;99822.09;108112;1254;70925;-74
2023/12/20 02:47:57;;;;;;;13.00;8.90;;;;;;;6.83;68.38;99819.95;108013;1256;73397;-73
2023/12/20 02:50:25;;;;;;;14.00;8.60;;;;;;;6.78;68.56;99813.99;108032;1257;60276;-75
2023/12/20 02:52:53;;;;;;;12.50;8.20;;;;;;;6.74;68.78;99812.59;108005;1260;61034;-74
2023/12/20 02:55:20;;;;;;;14.10;8.40;;;;;;;6.71;68.92;99813.31;108007;1260;73970;-73
2023/12/20 02:57:48;;;;;;;14.30;9.10;;;;;;;6.68;69.00;99812.63;107998;1255;72862;-73
2023/12/20 03:00:17;;;;;;;14.60;9.10;;;;;;;6.65;69.16;99817.52;108046;1254;71387;-75
2023/12/20 03:02:44;;;;;;;14.40;9.10;;;;;;;6.62;69.31;99816.70;107941;1254;60293;-75
2023/12/20 03:05:12;;;;;;;14.20;8.90;;;;;;;6.58;69.46;99817.71;108005;1254;60312;-73
2023/12/20 03:07:39;;;;;;;16.30;8.80;;;;;;;6.56;69.45;99809.20;108003;1254;73918;-74
2023/12/20 03:10:08;;;;;;;15.00;9.20;;;;;;;6.54;69.60;99805.84;108020;1259;72723;-74
2023/12/20 03:12:46;;;;;;;13.30;8.50;;;;;;;6.54;69.69;99802.81;108011;1256;71061;-74
2023/12/20 03:15:14;;;;;;;14.20;8.70;;;;;;;6.53;69.67;99797.29;107977;1260;60504;-74
2023/12/20 03:17:42;;;;;;;14.20;8.70;;;;;;;6.52;69.76;99791.81;108166;1254;60382;-73
2023/12/20 03:20:10;;;;;;;12.40;8.60;;;;;;;6.51;69.71;99797.85;108016;1254;72586;-74
2023/12/20 03:22:38;;;;;;;15.00;8.70;;;;;;;6.49;69.78;99798.95;107995;1260;71448;-74
2023/12/20 03:25:05;;;;;;;13.50;8.10;;;;;;;6.49;69.89;99796.03;108018;1254;72554;-74
2023/12/20 03:27:33;;;;;;;14.00;9.50;;;;;;;6.49;69.86;99795.97;107996;1260;60197;-74
2023/12/20 03:30:01;;;;;;;13.30;8.30;;;;;;;6.48;69.96;99797.16;108143;1254;60298;-75
2023/12/20 03:32:28;;;;;;;14.80;9.50;;;;;;;6.47;69.99;99803.69;107962;1255;72616;-74
2023/12/20 03:34:56;;;;;;;11.60;8.40;;;;;;;6.45;70.01;99816.55;107974;1254;71442;-73
2023/12/20 03:37:24;;;;;;;12.90;8.10;;;;;;;6.42;70.10;99814.19;107973;1260;72692;-73
2023/12/20 03:39:51;;;;;;;11.40;7.20;;;;;;;6.40;70.18;99808.17;107963;1255;60720;-74
2023/12/20 03:42:19;;;;;;;13.60;8.70;;;;;;;6.37;70.24;99813.12;107883;1254;59635;-77
2023/12/20 03:44:47;;;;;;;12.70;8.70;;;;;;;6.35;70.27;99818.67;107973;1254;71495;-74
2023/12/20 03:47:14;;;;;;;11.90;8.30;;;;;;;6.33;70.37;99820.56;108111;1260;71641;-74
2023/12/20 03:49:42;;;;;;;13.90;8.70;;;;;;;6.31;70.41;99821.06;107942;1255;72981;-73
2023/12/20 03:52:10;;;;;;;13.50;7.90;;;;;;;6.29;70.45;99820.63;107997;1254;60310;-73
2023/12/20 03:54:47;;;;;;;12.60;8.40;;;;;;;6.27;70.43;99829.81;107702;1262;60424;-74
2023/12/20 03:57:19;;;;;;;14.90;8.20;;;;;;;6.25;70.48;99829.16;107992;1254;73659;-73
2023/12/20 03:59:59;;;;;;;14.50;9.70;;;;;;;6.22;70.46;99820.90;108012;1259;71722;-73
2023/12/20 04:02:46;;;;;;;13.40;8.40;;;;;;;6.21;70.54;99816.90;107934;1257;72920;-74
2023/12/20 04:05:25;;;;;;;13.80;8.20;;;;;;;6.17;70.58;99822.07;108061;1254;60235;-73
2023/12/20 04:08:02;;;;;;;13.30;9.10;;;;;;;6.15;70.56;99814.86;108045;1254;60309;-73
2023/12/20 04:10:39;;;;;;;10.90;8.00;;;;;;;6.13;70.57;99816.44;108181;1254;76299;-75
2023/12/20 04:13:13;;;;;;;11.50;8.00;;;;;;;6.11;70.49;99813.00;107925;1254;75639;-74
2023/12/20 04:15:55;;;;;;;14.90;9.30;;;;;;;6.07;70.67;99810.27;108028;1259;71553;-75
2023/12/20 04:18:36;;;;;;;12.50;7.60;;;;;;;5.96;71.00;99810.23;107988;1254;60312;-73
2023/12/20 04:21:13;;;;;;;11.30;7.70;;;;;;;5.99;71.06;99811.54;108067;1257;60228;-75
2023/12/20 04:23:51;;;;;;;12.70;8.40;;;;;;;6.03;70.82;99807.35;108010;1254;74498;-75
2023/12/20 04:26:29;;;;;;;13.00;8.50;;;;;;;6.04;70.60;99806.29;108063;1254;73088;-72
2023/12/20 04:28:57;;;;;;;12.60;8.60;;;;;;;5.99;70.65;99806.27;108041;1254;71337;-73
2023/12/20 04:31:24;;;;;;;13.20;8.50;;;;;;;5.98;70.84;99809.34;108038;1254;60892;-75
2023/12/20 04:33:52;;;;;;;13.10;8.60;;;;;;;5.98;70.88;99803.14;108080;1254;60465;-75
2023/12/20 04:36:20;;;;;;;15.50;9.30;;;;;;;5.99;70.75;99806.72;107929;1254;72644;-75
2023/12/20 04:38:47;;;;;;;12.50;7.90;;;;;;;6.00;70.76;99816.42;108069;1254;71377;-74
2023/12/20 04:41:15;;;;;;;12.00;8.60;;;;;;;6.01;70.70;99820.98;107928;1256;72748;-74
2023/12/20 04:43:43;;;;;;;11.50;8.00;;;;;;;6.03;70.59;99826.07;108063;1254;60962;-74
2023/12/20 04:46:11;;;;;;;12.40;8.10;;;;;;;6.11;70.19;99827.61;108069;1254;60424;-72
2023/12/20 04:48:38;;;;;;;10.50;7.30;;;;;;;6.14;70.12;99830.50;108032;1254;72638;-75
2023/12/20 04:51:07;;;;;;;12.10;7.40;;;;;;;6.16;70.07;99830.70;108025;1254;72718;-73
2023/12/20 04:53:35;;;;;;;13.10;8.40;;;;;;;6.16;70.05;99826.29;107970;1257;71954;-75
2023/12/20 04:56:11;;;;;;;12.20;7.90;;;;;;;6.16;70.04;99826.66;107997;1254;60254;-73
2023/12/20 04:58:48;;;;;;;12.70;8.50;;;;;;;6.15;69.87;99824.46;108000;1254;62437;-74
2023/12/20 05:01:23;;;;;;;13.60;8.70;;;;;;;6.14;69.81;99827.75;107980;1254;73958;-75
2023/12/20 05:03:55;;;;;;;11.60;7.90;;;;;;;6.13;69.91;99820.42;107911;1254;72975;-74
2023/12/20 05:06:33;;;;;;;12.10;8.10;;;;;;;6.11;69.99;99811.33;107976;1257;75023;-74
2023/12/20 05:09:07;;;;;;;14.40;8.90;;;;;;;6.11;69.91;99810.96;108006;1260;59480;-73
2023/12/20 05:11:39;;;;;;;13.10;8.40;;;;;;;6.10;69.97;99815.66;108057;1260;60353;-73
2023/12/20 05:14:07;;;;;;;12.70;8.20;;;;;;;6.10;69.96;99816.30;108141;1254;73885;-73
2023/12/20 05:16:34;;;;;;;13.00;8.20;;;;;;;6.10;69.96;99818.52;108093;1254;71454;-73
2023/12/20 05:19:06;;;;;;;12.50;8.10;;;;;;;6.10;70.02;99816.66;108078;1254;71705;-72
2023/12/20 05:21:34;;;;;;;;;;;;;;;6.08;69.92;99818.39;108194;1253;60287;-73
2023/12/20 05:24:02;;;;;;;13.90;8.70;;;;;;;6.06;70.11;99824.79;108080;1254;60215;-72
2023/12/20 05:26:30;;;;;;;12.30;8.30;;;;;;;6.06;70.25;99820.52;108123;1254;72449;-74
2023/12/20 05:28:58;;;;;;;14.30;8.70;;;;;;;6.05;70.18;99819.55;108104;1254;71772;-75
2023/12/20 05:31:25;;;;;;;14.30;8.80;;;;;;;6.04;70.22;99822.67;108081;1260;71838;-72
2023/12/20 05:33:53;;;;;;;13.00;8.50;;;;;;;6.05;70.20;99826.34;108086;1254;60284;-72
2023/12/20 05:36:21;;;;;;;13.50;8.40;;;;;;;6.04;70.26;99826.23;108075;1254;60389;-74
2023/12/20 05:38:48;;;;;;;12.90;8.70;;;;;;;6.04;70.31;99829.73;108035;1259;73829;-74
2023/12/20 05:41:16;;;;;;;13.60;8.20;;;;;;;6.06;70.31;99823.71;108160;1254;71298;-74
2023/12/20 05:43:44;;;;;;;12.70;8.40;;;;;;;6.08;70.28;99825.27;108025;1254;72804;-76
2023/12/20 05:46:12;;;;;;;13.00;8.00;;;;;;;6.09;70.27;99829.80;108048;1257;60603;-76
2023/12/20 05:48:39;;;;;;;13.40;8.20;;;;;;;6.05;70.22;99828.41;108027;1254;60182;-74
2023/12/20 05:51:07;;;;;;;13.00;8.20;;;;;;;6.05;70.25;99831.27;108029;1254;73935;-72
2023/12/20 05:53:37;;;;;;;11.10;8.10;;;;;;;6.05;70.21;99833.30;108027;1259;71476;-74
2023/12/20 05:56:05;;;;;;;14.40;8.20;;;;;;;6.05;70.28;99827.84;107870;1254;71265;-74
2023/12/20 05:58:33;;;;;;;15.50;8.80;;;;;;;6.05;70.18;99824.16;107962;1254;60425;-74
2023/12/20 06:01:03;;;;;;;11.50;7.60;;;;;;;6.04;70.20;99817.22;108079;1254;59995;-75
2023/12/20 06:03:31;;;;;;;13.80;8.90;;;;;;;6.04;70.12;99814.77;108065;1254;73949;-74
2023/12/20 06:06:00;;;;;;;12.50;8.00;;;;;;;6.03;69.98;99816.30;108063;1254;72504;-75
2023/12/20 06:08:43;;;;;;;11.50;7.90;;;;;;;6.02;70.04;99820.70;108056;1257;71471;-74
2023/12/20 06:11:11;;;;;;;12.10;8.30;;;;;;;6.01;70.06;99819.72;107994;1254;60928;-75
2023/12/20 06:13:39;;;;;;;15.20;9.60;;;;;;;6.00;69.97;99823.74;107975;1254;60361;-74
2023/12/20 06:16:07;;;;;;;12.50;8.50;;;;;;;5.98;69.98;99821.54;107994;1254;73154;-74
2023/12/20 06:18:36;;;;;;;14.10;10.00;;;;;;;6.01;69.99;99822.15;107909;1254;72474;-74
2023/12/20 06:21:05;;;;;;;14.50;9.20;;;;;;;6.03;69.88;99823.77;108020;1257;71399;-74
2023/12/20 06:23:32;;;;;;;13.50;9.10;;;;;;;6.06;69.67;99823.86;108044;1254;60903;-74
2023/12/20 06:26:00;;;;;;;12.70;8.40;;;;;;;6.08;69.49;99825.64;108051;1253;60308;-74
2023/12/20 06:28:27;;;;;;;14.80;8.50;;;;;;;6.11;69.43;99825.00;108066;1254;73866;-76
2023/12/20 06:30:56;;;;;;;13.50;8.80;;;;;;;6.14;69.35;99828.86;108039;1254;71127;-74
2023/12/20 06:33:24;;;;;;;14.80;9.00;;;;;;;6.18;69.24;99831.98;107983;1254;73952;-75
2023/12/20 06:35:52;;;;;;;12.70;8.10;;;;;;;6.25;69.09;99835.30;108043;1254;60315;-75
2023/12/20 06:38:20;;;;;;;12.70;8.10;;;;;;;6.31;68.83;99841.17;107937;1254;60275;-75
2023/12/20 06:40:48;;;;;;;13.30;8.00;;;;;;;6.38;68.52;99841.58;107927;1260;72913;-74
2023/12/20 06:43:15;;;;;;;13.30;8.20;;;;;;;6.44;68.02;99840.33;107949;1254;71447;-74
2023/12/20 06:46:03;;;;;;;12.70;8.20;;;;;;;6.50;67.74;99842.20;107910;1254;72685;-75
2023/12/20 06:48:31;;;;;;;12.60;7.80;;;;;;;6.56;67.47;99832.88;108019;1254;60268;-74
2023/12/20 06:51:00;;;;;;;12.30;7.50;;;;;;;6.63;67.19;99827.39;108048;1254;60092;-75
2023/12/20 06:53:28;;;;;;;12.70;7.90;;;;;;;6.70;66.67;99825.27;108045;1254;72599;-74
2023/12/20 06:55:58;;;;;;;12.30;8.10;;;;;;;6.75;66.15;99823.80;108061;1254;72742;-74
2023/12/20 06:58:26;;;;;;;10.90;7.30;;;;;;;6.83;65.90;99824.67;108052;1254;71472;-75
2023/12/20 07:00:53;;;;;;;14.50;7.80;;;;;;;6.91;65.38;99825.91;108081;1254;60392;-74
2023/12/20 07:03:21;;;;;;;11.10;7.20;;;;;;;6.97;65.00;99821.57;107983;1254;60725;-73
2023/12/20 07:05:49;;;;;;;11.10;7.40;;;;;;;7.03;64.57;99817.23;107994;1254;74052;-74
2023/12/20 07:08:16;;;;;;;12.10;7.40;;;;;;;7.12;64.19;99815.50;108062;1254;71720;-73
2023/12/20 07:10:44;;;;;;;11.10;7.50;;;;;;;7.21;63.84;99821.48;107997;1254;72669;-75
2023/12/20 07:13:12;;;;;;;11.70;7.40;;;;;;;7.30;63.61;99818.90;108057;1254;60524;-75
2023/12/20 07:15:41;;;;;;;12.30;7.80;;;;;;;7.40;63.31;99822.63;108082;1253;60169;-75
2023/12/20 07:18:08;;;;;;;13.30;7.30;;;;;;;7.49;62.82;99814.21;108071;1253;73768;-75
2023/12/20 07:20:36;;;;;;;13.40;8.00;;;;;;;7.55;62.13;99808.36;108011;1254;71199;-75
2023/12/20 07:23:04;;;;;;;11.20;7.60;;;;;;;7.61;61.75;99806.01;108004;1254;72660;-74
2023/12/20 07:25:32;;;;;;;10.70;6.80;;;;;;;7.67;61.42;99806.56;108053;1254;62117;-73
2023/12/20 07:28:00;;;;;;;10.90;7.00;;;;;;;7.73;60.97;99809.07;107993;1253;61084;-73
2023/12/20 07:30:28;;;;;;;10.30;6.90;;;;;;;7.80;60.69;99806.40;108039;1253;73379;-74
2023/12/20 07:32:56;;;;;;;10.20;6.90;;;;;;;7.86;60.35;99806.05;108033;1254;72147;-74
2023/12/20 07:35:25;;;;;;;14.20;7.60;;;;;;;7.90;59.69;99805.77;107968;1254;71422;-75
2023/12/20 07:37:53;;;;;;;11.10;7.40;;;;;;;7.86;59.58;99806.48;108010;1256;59372;-75
2023/12/20 07:40:21;;;;;;;12.30;7.40;;;;;;;7.89;59.48;99809.64;108040;1256;61137;-75
2023/12/20 07:42:49;;;;;;;12.00;7.10;;;;;;;7.96;59.05;99803.71;108114;1254;72390;-74
2023/12/20 07:45:16;;;;;;;12.10;7.40;;;;;;;8.00;58.86;99803.96;108037;1254;72892;-75
2023/12/20 07:47:44;;;;;;;13.90;7.60;;;;;;;8.06;58.57;99796.59;108043;1254;72659;-75
2023/12/20 07:50:12;;;;;;;11.70;7.20;;;;;;;8.12;58.41;99789.02;108070;1257;61097;-74
2023/12/20 07:52:40;;;;;;;11.30;6.50;;;;;;;8.19;58.29;99776.59;108039;1254;60974;-75
2023/12/20 07:55:08;;;;;;;11.70;7.60;;;;;;;8.23;57.94;99779.64;108064;1254;72892;-75
2023/12/20 07:57:35;;;;;;;10.00;6.50;;;;;;;8.25;57.61;99781.04;108051;1254;71288;-75
2023/12/20 08:00:04;;;;;;;10.60;7.60;;;;;;;8.26;57.44;99787.52;108071;1254;71393;-77
2023/12/20 08:02:32;;;;;;;10.20;6.70;;;;;;;8.26;57.53;99781.52;108041;1256;61205;-75
2023/12/20 08:04:59;;;;;;;12.60;7.40;;;;;;;8.27;57.55;99779.34;108012;1253;60135;-76
2023/12/20 08:07:27;;;;;;;9.90;7.10;;;;;;;8.30;57.60;99773.34;108041;1254;74640;-74
2023/12/20 08:09:56;;;;;;;13.20;7.70;;;;;;;8.33;57.70;99773.92;107967;1254;71610;-74
2023/12/20 08:12:27;;;;;;;11.00;7.50;;;;;;;8.36;57.69;99774.70;107922;1256;71569;-74
2023/12/20 08:14:56;;;;;;;9.10;6.30;;;;;;;8.41;57.75;99774.95;108061;1253;61224;-75
2023/12/20 08:17:24;;;;;;;10.30;7.00;;;;;;;8.46;57.73;99773.99;108078;1254;61218;-75
2023/12/20 08:19:52;;;;;;;12.60;7.70;;;;;;;8.52;57.91;99776.41;107990;1254;73495;-73
2023/12/20 08:22:20;;;;;;;10.50;6.80;;;;;;;8.60;57.75;99785.02;108009;1254;71511;-75
2023/12/20 08:24:47;;;;;;;9.80;6.50;;;;;;;8.65;57.57;99774.85;108039;1254;72447;-74
2023/12/20 08:27:15;;;;;;;10.70;6.90;;;;;;;8.74;57.50;99779.92;108109;1256;61123;-75
2023/12/20 08:29:45;;;;;;;11.90;7.90;;;;;;;8.80;56.97;99785.00;108016;1254;61328;-75
2023/12/20 08:32:12;;;;;;;10.70;7.10;;;;;;;8.84;56.84;99784.73;108126;1254;74700;-75
2023/12/20 08:34:40;;;;;;;11.40;6.90;;;;;;;8.87;56.76;99784.05;108063;1254;72850;-75
2023/12/20 08:37:08;;;;;;;11.40;7.30;;;;;;;8.92;56.69;99785.39;108069;1259;71263;-74
2023/12/20 08:39:36;;;;;;;10.40;7.00;;;;;;;8.96;56.32;99775.27;108005;1256;61174;-74
2023/12/20 08:42:04;;;;;;;9.90;6.60;;;;;;;8.99;56.03;99776.29;107941;1259;60498;-74
2023/12/20 08:44:31;;;;;;;10.60;6.60;;;;;;;9.00;55.83;99770.48;78010;1254;20002874;-75
2023/12/20 08:46:59;;;;;;;8.80;6.50;;;;;;;9.03;55.96;99771.65;107925;1254;70378;-74
2023/12/20 08:49:27;;;;;;;11.30;7.10;;;;;;;9.07;55.80;99768.95;107900;1254;61126;-75
2023/12/20 08:51:55;;;;;;;10.60;7.00;;;;;;;9.12;55.69;99766.65;107829;1254;61205;-74
2023/12/20 08:54:24;;;;;;;10.50;6.40;;;;;;;9.16;55.38;99750.56;107820;1254;76747;-74
2023/12/20 08:56:52;;;;;;;11.60;7.20;;;;;;;9.19;55.11;99752.80;107906;1254;72787;-75
2023/12/20 08:59:19;;;;;;;11.10;6.90;;;;;;;9.18;55.02;99754.77;107839;1254;72707;-75
2023/12/20 09:01:48;;;;;;;8.90;6.20;;;;;;;9.18;54.64;99754.23;107861;1257;61179;-75
2023/12/20 09:04:20;;;;;;;9.10;6.30;;;;;;;9.18;54.49;99755.66;107772;1254;60386;-73
2023/12/20 09:07:02;;;;;;;10.40;7.00;;;;;;;9.19;54.36;99747.79;108371;1253;72666;-73
2023/12/20 09:10:03;;;;;;;9.80;7.00;;;;;;;9.22;54.53;99743.63;107820;1254;71974;-75
2023/12/20 09:21:54;;;;;;;11.20;7.00;;;;;;;9.46;54.21;99717.70;107759;1253;61653;-74
2023/12/20 09:24:22;;;;;;;10.20;6.90;;;;;;;9.52;53.87;99706.59;107827;1254;74601;-73
2023/12/20 09:26:49;;;;;;;10.50;6.70;;;;;;;9.56;53.77;99703.38;108006;1254;72980;-75
2023/12/20 09:29:25;;;;;;;10.20;7.10;;;;;;;9.59;53.82;99702.73;107936;1255;73121;-74
2023/12/20 09:31:52;;;;;;;9.60;6.20;;;;;;;9.65;53.50;99705.33;107881;1254;61108;-76
2023/12/20 09:34:21;;;;;;;10.70;6.80;;;;;;;9.71;53.37;99703.13;107893;1253;61209;-75
2023/12/20 09:36:49;;;;;;;10.70;7.10;;;;;;;9.78;53.08;99699.63;107846;1257;73379;-75
2023/12/20 09:39:20;;;;;;;11.10;7.10;;;;;;;9.84;52.78;99697.85;107955;1259;70877;-74
2023/12/20 09:42:02;;;;;;;9.00;6.30;;;;;;;9.87;52.59;99690.96;107914;1254;73593;-74
2023/12/20 09:44:30;;;;;;;11.60;6.60;;;;;;;9.89;52.52;99681.98;107810;1260;59741;-74
2023/12/20 09:46:58;;;;;;;10.00;6.80;;;;;;;9.93;52.60;99680.05;107947;1254;60997;-74
2023/12/20 09:49:27;;;;;;;9.90;6.50;;;;;;;9.98;52.77;99684.45;107972;1254;74746;-74
2023/12/20 09:51:55;;;;;;;9.30;6.70;;;;;;;10.06;52.92;99684.84;107992;1254;72861;-74
2023/12/20 09:54:23;;;;;;;10.60;6.50;;;;;;;10.14;52.64;99685.66;107969;1257;72805;-75
2023/12/20 09:56:51;;;;;;;9.30;6.20;;;;;;;10.19;52.55;99681.73;107917;1254;61226;-75
2023/12/20 09:59:19;;;;;;;10.20;6.30;;;;;;;10.24;52.47;99686.66;107930;1254;61064;-75
2023/12/20 10:01:47;;;;;;;10.20;6.50;;;;;;;10.26;52.27;99688.44;107927;1253;75140;-74
2023/12/20 10:04:18;;;;;;;10.30;6.40;;;;;;;10.26;52.11;99692.29;107725;1254;72893;-75
2023/12/20 10:06:56;;;;;;;10.10;6.10;;;;;;;10.28;52.12;99691.42;107836;1257;70813;-74
2023/12/20 10:09:25;;;;;;;8.80;6.30;;;;;;;10.29;51.62;99690.89;107931;1254;61235;-74
2023/12/20 10:11:54;;;;;;;9.70;6.30;;;;;;;10.27;51.50;99689.77;107768;1254;61163;-75
2023/12/20 10:14:25;;;;;;;8.90;5.80;;;;;;;10.25;51.31;99685.34;107878;1254;74659;-75
2023/12/20 10:16:54;;;;;;;9.20;6.20;;;;;;;10.24;51.33;99683.15;107789;1254;71069;-75
2023/12/20 10:19:21;;;;;;;9.90;6.60;;;;;;;10.24;51.22;99693.09;107865;1254;71430;-73
2023/12/20 10:21:49;;;;;;;9.00;6.50;;;;;;;10.22;51.25;99693.19;107894;1254;61106;-75
2023/12/20 10:24:17;;;;;;;9.80;6.20;;;;;;;10.22;51.15;99692.77;107970;1254;61077;-74
2023/12/20 10:26:45;;;;;;;8.80;6.20;;;;;;;10.22;51.25;99688.50;107824;1254;75290;-74
2023/12/20 10:29:13;;;;;;;11.70;6.40;;;;;;;10.24;51.40;99688.12;107829;1254;75045;-74
2023/12/20 10:31:42;;;;;;;9.70;6.00;;;;;;;10.25;51.21;99681.55;107933;1257;71250;-75
2023/12/20 10:34:10;;;;;;;8.50;5.30;;;;;;;10.29;51.37;99684.54;107986;1254;61569;-76
2023/12/20 10:36:38;;;;;;;8.30;5.70;;;;;;;10.32;51.10;99685.58;107973;1254;61247;-73
2023/12/20 10:39:06;;;;;;;9.60;5.80;;;;;;;10.33;50.85;99684.98;108004;1254;73472;-74
2023/12/20 10:41:40;;;;;;;8.50;5.80;;;;;;;10.36;50.92;99687.05;107844;1260;71462;-74
2023/12/20 10:44:08;;;;;;;9.80;5.70;;;;;;;10.39;50.80;99686.40;107912;1254;71613;-74
2023/12/20 10:46:36;;;;;;;9.60;5.80;;;;;;;10.43;50.73;99684.55;107719;1254;61000;-76
2023/12/20 10:49:04;;;;;;;7.60;5.10;;;;;;;10.45;50.63;99682.36;107826;1253;61207;-74
2023/12/20 10:51:32;;;;;;;8.40;5.40;;;;;;;10.46;50.66;99678.66;107701;1254;74737;-74
2023/12/20 10:54:00;;;;;;;9.00;5.70;;;;;;;10.49;50.71;99679.60;107762;1254;71624;-74
2023/12/20 10:56:33;;;;;;;8.70;5.80;;;;;;;10.50;50.29;99678.42;107933;1253;71656;-74
2023/12/20 10:59:05;;;;;;;8.10;5.30;;;;;;;10.49;50.07;99672.06;108095;1254;61281;-75
2023/12/20 11:01:34;;;;;;;8.80;5.60;;;;;;;10.49;50.00;99666.94;108027;1254;61372;-74
2023/12/20 11:04:07;;;;;;;9.80;5.60;;;;;;;10.48;49.97;99661.83;107816;1253;72452;-73
2023/12/20 11:06:45;;;;;;;9.30;5.90;;;;;;;10.47;49.63;99657.25;107987;1254;70945;-73
2023/12/20 11:09:19;;;;;;;8.30;5.70;;;;;;;10.46;49.57;99652.39;107813;1253;72807;-72
2023/12/20 11:12:10;;;;;;;8.30;5.30;;;;;;;10.47;49.67;99647.11;107965;1259;61374;-75
2023/12/20 11:14:52;;;;;;;8.70;5.90;;;;;;;10.48;49.62;99648.91;107954;1254;61184;-75
2023/12/20 11:17:20;;;;;;;8.60;5.80;;;;;;;10.47;49.53;99642.41;108125;1253;73949;-75
2023/12/20 11:20:10;;;;;;;9.90;5.90;;;;;;;10.47;49.68;99640.20;107895;1254;73227;-74
2023/12/20 11:22:41;;;;;;;7.90;5.60;;;;;;;10.49;49.86;99638.69;108148;1254;71396;-74
2023/12/20 11:25:10;;;;;;;9.30;5.80;;;;;;;10.49;49.92;99636.29;107799;1253;61078;-75
2023/12/20 11:27:43;;;;;;;7.60;5.40;;;;;;;10.50;50.12;99633.41;108216;1254;60499;-74
2023/12/20 11:30:13;;;;;;;9.60;6.00;;;;;;;10.49;50.01;99629.83;108142;1254;74909;-75
2023/12/20 11:32:41;;;;;;;7.30;5.30;;;;;;;10.49;50.24;99628.01;107885;1254;70946;-73
2023/12/20 11:35:08;;;;;;;8.70;5.10;;;;;;;10.49;50.13;99626.34;108207;1253;71993;-75
2023/12/20 11:37:37;;;;;;;10.30;6.30;;;;;;;10.48;50.06;99625.84;108218;1255;61238;-74
2023/12/20 11:40:09;;;;;;;12.00;5.90;;;;;;;10.46;50.11;99623.52;108378;1254;61222;-74
2023/12/20 11:42:40;;;;;;;;;;;;;;;10.45;50.20;99617.42;108227;1254;74732;-74
2023/12/20 11:45:14;;;;;;;6.90;5.00;;;;;;;10.45;50.14;99613.89;108161;1253;73168;-75